KBKE/BKE METAR and TAF weather

Enter ICAO airport designator
Station Type Date Time Source
KBKE METAR 2022/11/30 11:22 UTC NOAA

KBKE 301122Z AUTO 11016G25KT 1 1/4SM -SN BR OVC017 M04/M06 A2982 RMK AO2 PK WND 11026/1105 P0000 T10391061


Station Type Date Time Source
KBKE Decoded METAR 2022/11/30 11:22 UTC NOAA

BAKER MUNICIPAL AIRPORT, OR, United States (KBKE) 44-50N 117-49W 1024M
Nov 30, 2022 - 06:22 AM EST / 2022.11.30 1122 UTC
Wind: from the ESE (110 degrees) at 18 MPH (16 KT) gusting to 29 MPH (25 KT):0
Visibility: 1 1/4 mile(s):0
Sky conditions: overcast
Weather: light snow; mist
Precipitation last hour: A trace
Temperature: 25.0 F (-3.9 C)
Windchill: 12 F (-11 C):1
Dew Point: 21.0 F (-6.1 C)
Relative Humidity: 84%
Pressure (altimeter): 29.82 in. Hg (1009 hPa)
ob: KBKE 301122Z AUTO 11016G25KT 1 1/4SM -SN BR OVC017 M04/M06 A2982 RMK AO2 PK WND 11026/1105 P0000 T10391061
cycle: 11

Station Type Date Time Source
KBKE TAF 2022/11/30 12:22 UTC NOAA

TAF KBKE 301120Z 3012/0112 10015G25KT 2SM -SN BR OVC020
FM301500 11014G24KT P6SM VCSH OVC050
FM302300 11013KT 3SM -SHSN BR OVC025
FM010600 14012KT 2SM -SHSN OVC015

Example: see airport list